createdAt,value
2022-12-09T00:00:08.470Z,57.50
2022-12-09T00:02:36.175Z,57.72
2022-12-09T00:05:04.230Z,51.75
2022-12-09T00:07:33.545Z,55.53
2022-12-09T00:10:00.398Z,60.78
2022-12-09T00:12:27.559Z,60.53
2022-12-09T00:14:54.342Z,64.40
2022-12-09T00:17:21.165Z,69.60
2022-12-09T00:19:48.000Z,69.35
2022-12-09T00:22:14.865Z,65.85
2022-12-09T00:24:41.676Z,61.17
2022-12-09T00:27:08.721Z,66.15
2022-12-09T00:29:35.956Z,64.40
2022-12-09T00:32:03.084Z,67.47
2022-12-09T00:34:30.055Z,48.05
2022-12-09T00:36:56.792Z,67.30
2022-12-09T00:39:24.212Z,67.22
2022-12-09T00:41:51.625Z,62.22
2022-12-09T00:44:19.438Z,64.57
2022-12-09T00:46:46.446Z,64.07
2022-12-09T00:49:14.089Z,67.85
2022-12-09T00:51:41.289Z,66.95
2022-12-09T00:54:08.357Z,66.18
2022-12-09T00:56:35.205Z,68.57
2022-12-09T00:59:02.496Z,67.93
2022-12-09T01:01:30.085Z,53.95
2022-12-09T01:03:57.417Z,61.35
2022-12-09T01:06:26.768Z,65.75
2022-12-09T01:08:54.587Z,77.00
2022-12-09T01:11:26.705Z,74.70
2022-12-09T01:13:57.712Z,81.88
2022-12-09T01:16:27.917Z,74.15
2022-12-09T01:18:59.557Z,78.10
2022-12-09T01:21:28.953Z,75.82
2022-12-09T01:23:55.803Z,83.15
2022-12-09T01:26:22.659Z,81.40
2022-12-09T01:28:53.437Z,82.13
2022-12-09T01:31:24.905Z,72.13
2022-12-09T01:33:53.708Z,72.53
2022-12-09T01:36:25.638Z,77.38
2022-12-09T01:38:53.379Z,77.75
2022-12-09T01:41:21.950Z,73.07
2022-12-09T01:44:23.123Z,81.82
2022-12-09T01:46:55.919Z,81.45
2022-12-09T01:49:31.850Z,71.88
2022-12-09T01:52:10.936Z,87.07
2022-12-09T01:54:43.822Z,84.72
2022-12-09T01:59:39.510Z,79.05
2022-12-09T02:02:09.322Z,81.97
2022-12-09T02:04:41.830Z,87.35
2022-12-09T02:07:10.761Z,84.05
2022-12-09T02:09:40.231Z,87.75
2022-12-09T02:12:41.399Z,84.13
2022-12-09T02:15:44.787Z,80.90
2022-12-09T02:18:25.396Z,84.60
2022-12-09T02:21:08.284Z,89.68
2022-12-09T02:23:58.935Z,85.10
2022-12-09T02:26:42.520Z,87.68
2022-12-09T02:30:14.870Z,95.18
2022-12-09T02:33:01.994Z,91.28
2022-12-09T02:35:53.044Z,87.00
2022-12-09T02:38:32.381Z,78.63
2022-12-09T02:41:15.252Z,80.88
2022-12-09T02:43:54.389Z,86.20
2022-12-09T02:46:29.435Z,93.50
2022-12-09T02:48:59.329Z,88.30
2022-12-09T02:51:34.084Z,91.68
2022-12-09T02:54:18.918Z,85.07
2022-12-09T02:56:55.739Z,85.43
2022-12-09T02:59:24.251Z,84.88
2022-12-09T03:02:21.821Z,90.25
2022-12-09T03:05:28.509Z,89.82
2022-12-09T03:08:13.485Z,90.93
2022-12-09T03:10:50.129Z,94.45
2022-12-09T03:13:35.462Z,88.53
2022-12-09T03:16:17.894Z,91.32
2022-12-09T03:18:55.501Z,92.95
2022-12-09T03:21:26.440Z,90.50
2022-12-09T03:23:57.020Z,94.18
2022-12-09T03:26:30.421Z,93.68
2022-12-09T03:29:02.457Z,94.25
2022-12-09T03:31:32.567Z,97.07
2022-12-09T03:34:05.128Z,98.90
2022-12-09T03:36:40.393Z,93.07
2022-12-09T03:39:14.923Z,101.95
2022-12-09T03:41:51.057Z,98.75
2022-12-09T03:44:26.700Z,91.30
2022-12-09T03:46:53.798Z,99.28
2022-12-09T03:49:21.215Z,98.90
2022-12-09T03:51:58.001Z,97.45
2022-12-09T03:54:38.115Z,96.65
2022-12-09T03:57:11.369Z,107.28
2022-12-09T03:59:47.187Z,99.97
2022-12-09T04:02:14.345Z,108.55
2022-12-09T04:04:42.703Z,100.05
2022-12-09T04:07:10.636Z,110.45
2022-12-09T04:09:41.462Z,100.00
2022-12-09T04:12:08.920Z,104.90
2022-12-09T04:14:35.804Z,104.05
2022-12-09T04:17:03.315Z,112.53
2022-12-09T04:19:30.309Z,110.78
2022-12-09T04:22:00.138Z,106.40
2022-12-09T04:24:27.401Z,107.03
2022-12-09T04:26:54.553Z,105.10
2022-12-09T04:29:21.821Z,104.20
2022-12-09T04:31:48.867Z,106.15
2022-12-09T04:34:15.687Z,101.05
2022-12-09T04:36:42.807Z,104.22
2022-12-09T04:39:09.579Z,115.20
2022-12-09T04:41:37.065Z,109.72
2022-12-09T04:44:04.322Z,112.90
2022-12-09T04:46:31.351Z,116.93
2022-12-09T04:48:58.937Z,110.00
2022-12-09T04:51:26.015Z,111.13
2022-12-09T04:53:52.791Z,103.72
2022-12-09T04:56:21.581Z,118.05
2022-12-09T04:58:50.742Z,115.95
2022-12-09T05:01:26.650Z,107.82
2022-12-09T05:03:57.763Z,107.22
2022-12-09T05:06:25.151Z,117.60
2022-12-09T05:08:52.871Z,111.57
2022-12-09T05:11:22.356Z,107.50
2022-12-09T05:13:49.773Z,109.53
2022-12-09T05:16:19.902Z,115.93
2022-12-09T05:18:49.089Z,108.18
2022-12-09T05:21:20.338Z,118.40
2022-12-09T05:23:48.670Z,123.80
2022-12-09T05:26:19.414Z,127.43
2022-12-09T05:28:47.004Z,125.80
2022-12-09T05:31:18.195Z,117.43
2022-12-09T05:33:46.860Z,120.57
2022-12-09T05:36:17.982Z,114.95
2022-12-09T05:38:45.746Z,116.05
2022-12-09T05:41:13.089Z,111.20
2022-12-09T05:43:41.039Z,113.00
2022-12-09T05:46:09.430Z,111.15
2022-12-09T05:48:37.435Z,118.25
2022-12-09T05:51:14.328Z,110.03
2022-12-09T05:53:42.868Z,108.25
2022-12-09T05:56:09.952Z,108.88
2022-12-09T05:58:36.962Z,104.88
2022-12-09T06:01:08.616Z,102.95
2022-12-09T06:03:36.700Z,107.82
2022-12-09T06:06:13.736Z,103.97
2022-12-09T06:08:42.992Z,111.63
2022-12-09T06:11:17.310Z,102.43
2022-12-09T06:13:45.292Z,112.30
2022-12-09T06:16:14.139Z,109.63
2022-12-09T06:18:41.734Z,103.32
2022-12-09T06:21:13.407Z,111.40
2022-12-09T06:23:42.845Z,106.07
2022-12-09T06:26:26.995Z,102.97
2022-12-09T06:28:55.449Z,66.57
2022-12-09T06:31:23.127Z,96.78
2022-12-09T06:33:55.829Z,104.13
2022-12-09T06:36:26.152Z,77.63
2022-12-09T06:38:54.050Z,64.57
2022-12-09T06:41:21.288Z,95.68
2022-12-09T06:43:48.849Z,93.78
2022-12-09T06:46:20.420Z,94.20
2022-12-09T06:48:48.110Z,99.03
2022-12-09T06:51:17.176Z,103.68
2022-12-09T06:53:45.528Z,88.82
2022-12-09T06:56:14.924Z,99.53
2022-12-09T06:58:45.744Z,80.07
2022-12-09T07:01:17.448Z,103.95
2022-12-09T07:03:48.000Z,71.13
2022-12-09T07:06:34.583Z,87.97
2022-12-09T07:09:20.940Z,54.03
2022-12-09T07:11:49.562Z,54.00
2022-12-09T07:14:18.303Z,83.72
2022-12-09T07:16:46.078Z,85.80
2022-12-09T07:19:19.197Z,90.35
2022-12-09T07:21:47.072Z,89.70
2022-12-09T07:24:14.115Z,98.97
2022-12-09T07:26:41.429Z,85.72
2022-12-09T07:29:08.681Z,82.53
2022-12-09T07:31:37.420Z,74.00
2022-12-09T07:34:05.720Z,67.13
2022-12-09T07:36:35.288Z,64.60
2022-12-09T07:39:07.716Z,80.80
2022-12-09T07:44:01.874Z,70.18
2022-12-09T07:46:29.072Z,77.55
2022-12-09T07:48:58.486Z,83.40
2022-12-09T07:51:26.179Z,86.38
2022-12-09T07:53:54.196Z,85.47
2022-12-09T07:56:23.436Z,86.30
2022-12-09T07:58:53.524Z,92.20
2022-12-09T08:01:29.402Z,81.50
2022-12-09T08:03:58.104Z,90.18
2022-12-09T08:06:28.888Z,86.88
2022-12-09T08:09:07.283Z,88.35
2022-12-09T08:11:34.976Z,93.88
2022-12-09T08:14:11.362Z,86.57
2022-12-09T08:16:41.976Z,92.03
2022-12-09T08:19:10.189Z,97.32
2022-12-09T08:21:38.344Z,85.53
2022-12-09T08:24:07.794Z,82.25
2022-12-09T08:26:37.632Z,77.88
2022-12-09T08:29:10.168Z,75.22
2022-12-09T08:31:40.866Z,71.28
2022-12-09T08:34:09.216Z,88.57
2022-12-09T08:36:37.155Z,91.47
2022-12-09T08:39:05.317Z,79.85
2022-12-09T08:41:36.362Z,48.90
2022-12-09T08:44:13.789Z,75.72
2022-12-09T08:46:45.579Z,73.43
2022-12-09T08:49:18.093Z,79.72
2022-12-09T08:51:47.491Z,82.50
2022-12-09T08:54:14.644Z,82.75
2022-12-09T08:56:46.832Z,81.63
2022-12-09T08:59:15.429Z,79.20
2022-12-09T09:01:42.454Z,81.07
2022-12-09T09:04:17.638Z,80.60
2022-12-09T09:06:49.514Z,50.80
2022-12-09T09:09:18.549Z,69.90
2022-12-09T09:11:45.848Z,54.28
2022-12-09T09:14:14.879Z,74.57
2022-12-09T09:16:44.691Z,76.93
2022-12-09T09:19:21.649Z,76.13
2022-12-09T09:21:49.774Z,83.32
2022-12-09T09:24:20.224Z,92.47
2022-12-09T09:26:49.379Z,91.63
2022-12-09T09:29:20.626Z,39.13
2022-12-09T09:31:49.713Z,84.90
2022-12-09T09:34:18.963Z,90.00
2022-12-09T09:36:46.853Z,81.65
2022-12-09T09:39:13.915Z,91.65
2022-12-09T09:42:08.214Z,90.97
2022-12-09T09:44:48.730Z,88.78
2022-12-09T09:47:38.927Z,71.72
2022-12-09T09:50:31.952Z,70.03
2022-12-09T09:53:11.544Z,81.53
2022-12-09T09:56:04.933Z,72.75
2022-12-09T09:59:00.439Z,50.92
2022-12-09T10:01:35.946Z,69.28
2022-12-09T10:04:03.487Z,47.65
2022-12-09T10:07:06.964Z,63.65
2022-12-09T10:10:03.113Z,81.50
2022-12-09T10:12:49.496Z,72.97
2022-12-09T10:15:27.630Z,79.05
2022-12-09T10:18:33.050Z,83.28
2022-12-09T10:21:00.792Z,63.70
2022-12-09T10:23:33.090Z,71.00
2022-12-09T10:26:06.850Z,79.68
2022-12-09T10:28:42.494Z,73.25
2022-12-09T10:31:11.994Z,62.78
2022-12-09T10:33:41.180Z,42.22
2022-12-09T10:36:26.842Z,75.60
2022-12-09T10:38:57.614Z,50.00
2022-12-09T10:42:09.040Z,75.50
2022-12-09T10:44:36.185Z,83.32
2022-12-09T10:47:08.049Z,84.95
2022-12-09T10:52:05.338Z,66.95
2022-12-09T10:54:39.360Z,72.68
2022-12-09T10:57:29.890Z,66.60
2022-12-09T11:00:24.660Z,64.88
2022-12-09T11:02:55.725Z,71.20
2022-12-09T11:05:27.541Z,68.65
2022-12-09T11:07:58.412Z,30.98
2022-12-09T11:10:29.617Z,63.53
2022-12-09T11:13:06.404Z,67.30
2022-12-09T11:15:44.047Z,63.75
2022-12-09T11:18:48.312Z,65.75
2022-12-09T11:21:37.126Z,64.50
2022-12-09T11:24:05.027Z,64.60
2022-12-09T11:26:37.577Z,74.25
2022-12-09T11:29:17.321Z,63.17
2022-12-09T11:31:46.312Z,64.63
2022-12-09T11:34:27.396Z,68.65
2022-12-09T11:36:59.061Z,65.65
2022-12-09T11:39:31.289Z,49.42
2022-12-09T11:42:17.472Z,70.07
2022-12-09T11:45:06.529Z,61.83
2022-12-09T11:50:31.666Z,69.30
2022-12-09T11:53:11.685Z,74.47
2022-12-09T11:55:48.326Z,72.93
2022-12-09T11:58:34.741Z,55.35
2022-12-09T12:01:11.887Z,70.75
2022-12-09T12:03:53.781Z,79.43
2022-12-09T12:06:26.733Z,80.30
2022-12-09T12:09:04.492Z,76.80
2022-12-09T12:11:48.116Z,79.80
2022-12-09T12:14:27.937Z,63.35
2022-12-09T12:17:13.859Z,70.55
2022-12-09T12:19:43.416Z,69.72
2022-12-09T12:22:55.029Z,53.55
2022-12-09T12:25:27.526Z,64.57
2022-12-09T12:28:50.540Z,67.97
2022-12-09T12:32:07.571Z,51.47
2022-12-09T12:35:10.382Z,40.38
2022-12-09T12:37:54.431Z,46.30
2022-12-09T12:41:10.560Z,57.22
2022-12-09T12:44:04.740Z,47.50
2022-12-09T12:47:04.798Z,46.58
2022-12-09T12:49:52.847Z,61.20
2022-12-09T12:52:59.419Z,64.60
2022-12-09T12:56:19.192Z,59.97
2022-12-09T12:59:08.155Z,66.75
2022-12-09T13:02:00.460Z,69.38
2022-12-09T13:05:13.805Z,80.45
2022-12-09T13:07:53.785Z,66.15
2022-12-09T13:10:44.021Z,70.82
2022-12-09T13:13:35.167Z,60.60
2022-12-09T13:16:18.410Z,58.97
2022-12-09T13:18:48.515Z,58.20
2022-12-09T13:21:16.864Z,39.08
2022-12-09T13:24:15.851Z,51.95
2022-12-09T13:27:15.362Z,57.50
2022-12-09T13:30:30.631Z,61.17
2022-12-09T13:33:21.779Z,63.70
2022-12-09T13:36:08.112Z,54.47
2022-12-09T13:38:42.564Z,60.05
2022-12-09T13:42:03.677Z,60.70
2022-12-09T13:44:35.326Z,51.55
2022-12-09T13:47:24.504Z,55.58
2022-12-09T13:50:00.304Z,57.05
2022-12-09T13:52:51.844Z,59.88
2022-12-09T13:55:33.767Z,60.17
2022-12-09T13:58:27.121Z,51.10
2022-12-09T14:01:04.492Z,56.67
2022-12-09T14:03:48.849Z,54.85
2022-12-09T14:06:29.335Z,49.05
2022-12-09T14:09:05.217Z,53.42
2022-12-09T14:12:13.588Z,56.38
2022-12-09T14:15:24.464Z,54.63
2022-12-09T14:17:51.169Z,51.00
2022-12-09T14:21:05.359Z,50.97
2022-12-09T14:23:32.140Z,51.97
2022-12-09T14:26:02.819Z,54.25
2022-12-09T14:28:42.144Z,36.58
2022-12-09T14:31:09.641Z,27.23
2022-12-09T14:33:47.403Z,42.97
2022-12-09T14:36:14.090Z,22.95
2022-12-09T14:42:01.587Z,39.28
2022-12-09T14:44:47.757Z,37.20
2022-12-09T14:47:30.215Z,44.42
2022-12-09T14:50:18.350Z,43.97
2022-12-09T14:52:58.687Z,30.48
2022-12-09T14:55:28.054Z,39.97
2022-12-09T14:57:59.287Z,39.47
2022-12-09T15:00:37.503Z,44.78
2022-12-09T15:03:34.209Z,42.13
2022-12-09T15:06:13.349Z,30.75
2022-12-09T15:08:41.767Z,41.15
2022-12-09T15:11:18.292Z,43.38
2022-12-09T15:13:50.763Z,52.60
2022-12-09T15:16:23.932Z,48.80
2022-12-09T15:18:53.010Z,47.47
2022-12-09T15:21:32.765Z,47.63
2022-12-09T15:24:00.980Z,41.30
2022-12-09T15:26:33.545Z,44.53
2022-12-09T15:31:32.085Z,45.72
2022-12-09T15:34:14.280Z,48.15
2022-12-09T15:36:49.308Z,45.10
2022-12-09T15:39:29.895Z,41.63
2022-12-09T15:42:07.936Z,45.33
2022-12-09T15:45:01.209Z,54.20
2022-12-09T15:47:45.922Z,47.17
2022-12-09T15:50:26.772Z,47.30
2022-12-09T15:53:23.237Z,49.40
2022-12-09T15:56:02.804Z,43.55
2022-12-09T15:58:38.935Z,46.97
2022-12-09T16:01:06.150Z,51.60
2022-12-09T16:03:35.852Z,50.17
2022-12-09T16:06:07.526Z,53.15
2022-12-09T16:08:41.726Z,54.40
2022-12-09T16:11:09.594Z,59.42
2022-12-09T16:13:37.709Z,57.75
2022-12-09T16:16:29.973Z,54.28
2022-12-09T16:18:56.940Z,51.72
2022-12-09T16:21:27.629Z,53.47
2022-12-09T16:24:04.737Z,49.42
2022-12-09T16:26:38.216Z,51.92
2022-12-09T16:29:16.894Z,51.05
2022-12-09T16:31:43.876Z,54.85
2022-12-09T16:34:23.169Z,49.28
2022-12-09T16:36:57.068Z,55.55
2022-12-09T16:39:23.743Z,49.08
2022-12-09T16:41:53.513Z,52.70
2022-12-09T16:44:36.500Z,33.15
2022-12-09T16:47:16.044Z,45.25
2022-12-09T16:49:48.549Z,49.55
2022-12-09T16:54:51.761Z,46.55
2022-12-09T16:57:20.470Z,27.98
2022-12-09T16:59:47.753Z,33.72
2022-12-09T17:02:39.375Z,39.78
2022-12-09T17:05:07.078Z,46.75
2022-12-09T17:07:33.892Z,51.00
2022-12-09T17:10:00.669Z,49.85
2022-12-09T17:12:27.452Z,56.88
2022-12-09T17:14:54.587Z,42.60
2022-12-09T17:17:21.383Z,42.17
2022-12-09T17:19:48.334Z,47.47
2022-12-09T17:22:16.846Z,41.78
2022-12-09T17:24:43.616Z,51.05
2022-12-09T17:27:10.323Z,23.80
2022-12-09T17:29:37.466Z,34.53
2022-12-09T17:32:04.743Z,35.30
2022-12-09T17:34:31.460Z,46.63
2022-12-09T17:36:58.416Z,58.90
2022-12-09T17:39:25.191Z,57.63
2022-12-09T17:41:51.970Z,54.47
2022-12-09T17:44:21.159Z,44.78
2022-12-09T17:46:50.561Z,46.28
2022-12-09T17:49:19.044Z,51.38
2022-12-09T17:51:46.384Z,50.17
2022-12-09T17:54:13.198Z,49.40
2022-12-09T17:56:39.945Z,50.05
2022-12-09T17:59:12.531Z,31.90
2022-12-09T18:04:10.202Z,54.40
2022-12-09T18:06:41.098Z,46.90
2022-12-09T18:09:13.048Z,35.45
2022-12-09T18:11:40.476Z,52.35
2022-12-09T18:14:07.814Z,52.13
2022-12-09T18:16:34.622Z,33.85
2022-12-09T18:19:15.407Z,25.70
2022-12-09T18:21:44.099Z,59.35
2022-12-09T18:24:11.028Z,61.70
2022-12-09T18:26:41.665Z,64.07
2022-12-09T18:29:10.001Z,64.93
2022-12-09T18:31:36.920Z,66.63
2022-12-09T18:34:04.021Z,64.35
2022-12-09T18:36:31.276Z,35.75
2022-12-09T18:38:59.284Z,59.92
2022-12-09T18:41:30.017Z,53.65
2022-12-09T18:44:01.294Z,47.60
2022-12-09T18:46:33.610Z,65.13
2022-12-09T18:49:05.696Z,38.78
2022-12-09T18:51:32.981Z,53.67
2022-12-09T18:54:02.467Z,28.55
2022-12-09T18:56:30.286Z,55.58
2022-12-09T18:59:06.564Z,30.55
2022-12-09T19:01:39.681Z,52.55
2022-12-09T19:06:42.456Z,46.47
2022-12-09T19:09:18.410Z,50.78
2022-12-09T19:11:47.551Z,52.38
2022-12-09T19:14:17.091Z,54.80
2022-12-09T19:16:45.128Z,42.83
2022-12-09T19:19:20.450Z,47.45
2022-12-09T19:21:47.979Z,53.13
2022-12-09T19:24:19.145Z,52.20
2022-12-09T19:26:46.491Z,48.65
2022-12-09T19:29:15.068Z,56.88
2022-12-09T19:31:45.325Z,46.83
2022-12-09T19:34:16.558Z,37.35
2022-12-09T19:36:46.734Z,58.47
2022-12-09T19:39:15.594Z,43.28
2022-12-09T19:41:44.461Z,16.25
2022-12-09T19:44:37.317Z,25.88
2022-12-09T19:47:05.441Z,27.55
2022-12-09T19:49:32.274Z,37.90
2022-12-09T19:52:00.577Z,25.42
2022-12-09T19:54:29.592Z,37.75
2022-12-09T19:56:57.052Z,47.45
2022-12-09T19:59:23.857Z,33.72
2022-12-09T20:01:51.404Z,27.95
2022-12-09T20:07:08.871Z,55.33
2022-12-09T20:09:37.280Z,30.25
2022-12-09T20:12:04.767Z,50.83
2022-12-09T20:14:31.759Z,26.75
2022-12-09T20:16:58.815Z,46.75
2022-12-09T20:19:25.592Z,31.35
2022-12-09T20:21:52.283Z,60.70
2022-12-09T20:24:19.128Z,62.45
2022-12-09T20:26:45.850Z,69.57
2022-12-09T20:29:12.710Z,56.65
2022-12-09T20:31:41.781Z,41.40
2022-12-09T20:34:16.359Z,34.35
2022-12-09T20:36:45.289Z,54.50
2022-12-09T20:39:20.163Z,64.43
2022-12-09T20:41:48.614Z,63.70
2022-12-09T20:44:17.273Z,47.67
2022-12-09T20:46:53.211Z,61.22
2022-12-09T20:49:26.262Z,56.30
2022-12-09T20:51:54.135Z,32.25
2022-12-09T20:54:21.116Z,48.90
2022-12-09T20:56:48.913Z,61.00
2022-12-09T20:59:15.859Z,57.30
2022-12-09T21:01:43.645Z,47.70
2022-12-09T21:04:10.515Z,56.03
2022-12-09T21:06:40.394Z,43.63
2022-12-09T21:09:11.429Z,35.40
2022-12-09T21:11:38.838Z,48.42
2022-12-09T21:14:07.106Z,59.40
2022-12-09T21:16:43.843Z,40.50
2022-12-09T21:19:14.952Z,57.08
2022-12-09T21:21:49.164Z,52.28
2022-12-09T21:24:17.792Z,40.92
2022-12-09T21:26:47.127Z,58.03
2022-12-09T21:29:15.717Z,45.80
2022-12-09T21:31:44.129Z,51.22
2022-12-09T21:34:10.988Z,58.47
2022-12-09T21:36:42.699Z,44.50
2022-12-09T21:39:14.117Z,40.60
2022-12-09T21:41:41.567Z,64.72
2022-12-09T21:44:12.994Z,59.70
2022-12-09T21:46:39.917Z,62.70
2022-12-09T21:49:06.939Z,62.15
2022-12-09T21:51:35.519Z,41.13
2022-12-09T21:54:02.831Z,58.13
2022-12-09T21:56:32.883Z,57.80
2022-12-09T21:59:00.268Z,62.13
2022-12-09T22:01:32.612Z,30.88
2022-12-09T22:06:29.767Z,63.47
2022-12-09T22:08:59.958Z,56.95
2022-12-09T22:11:31.797Z,38.65
2022-12-09T22:14:00.966Z,70.90
2022-12-09T22:16:41.161Z,42.47
2022-12-09T22:19:13.696Z,52.20
2022-12-09T22:21:40.724Z,66.65
2022-12-09T22:24:10.076Z,65.22
2022-12-09T22:26:37.365Z,57.22
2022-12-09T22:29:06.780Z,56.60
2022-12-09T22:31:37.486Z,61.72
2022-12-09T22:34:10.052Z,58.30
2022-12-09T22:36:37.294Z,60.85
2022-12-09T22:39:11.608Z,67.32
2022-12-09T22:41:38.529Z,51.72
2022-12-09T22:44:05.725Z,58.00
2022-12-09T22:46:34.385Z,62.78
2022-12-09T22:49:06.345Z,66.75
2022-12-09T22:51:36.449Z,65.85
2022-12-09T22:54:08.022Z,47.53
2022-12-09T22:56:41.148Z,39.67
2022-12-09T22:59:08.260Z,67.47
2022-12-09T23:01:37.529Z,68.45
2022-12-09T23:04:07.604Z,41.20
2022-12-09T23:06:37.809Z,58.83
2022-12-09T23:09:07.828Z,56.67
2022-12-09T23:11:35.410Z,50.85
2022-12-09T23:14:02.678Z,68.25
2022-12-09T23:16:29.824Z,58.33
2022-12-09T23:18:58.354Z,64.65
2022-12-09T23:21:36.000Z,62.00
2022-12-09T23:24:08.279Z,52.45
2022-12-09T23:26:39.277Z,59.30
2022-12-09T23:29:12.132Z,63.45
2022-12-09T23:31:39.619Z,61.17
2022-12-09T23:34:09.053Z,39.22
2022-12-09T23:36:39.383Z,55.08
2022-12-09T23:39:17.694Z,64.53
2022-12-09T23:41:45.761Z,47.63
2022-12-09T23:44:16.667Z,53.78
2022-12-09T23:46:43.828Z,37.25
2022-12-09T23:49:11.013Z,48.30
2022-12-09T23:51:41.398Z,55.10
2022-12-09T23:54:11.046Z,54.80
2022-12-09T23:56:43.969Z,53.95
2022-12-09T23:59:14.316Z,46.08
